createdAt,value
2018-10-01T00:00:12.622Z,0
2018-10-01T00:01:22.241Z,0
2018-10-01T00:02:32.125Z,0
2018-10-01T00:03:42.351Z,0
2018-10-01T00:04:52.272Z,0
2018-10-01T00:06:02.404Z,0
2018-10-01T00:07:12.042Z,0
2018-10-01T00:08:22.179Z,0
2018-10-01T00:09:32.380Z,0
2018-10-01T00:10:42.541Z,0
2018-10-01T00:11:52.669Z,0
2018-10-01T00:13:02.811Z,0
2018-10-01T00:14:12.690Z,0
2018-10-01T00:15:23.149Z,0
2018-10-01T00:16:33.282Z,0
2018-10-01T00:17:43.424Z,0
2018-10-01T00:18:53.612Z,0
2018-10-01T00:20:03.757Z,0
2018-10-01T00:21:13.885Z,0
2018-10-01T00:22:24.019Z,0
2018-10-01T00:23:33.872Z,0
2018-10-01T00:24:43.847Z,0
2018-10-01T00:25:53.741Z,0
2018-10-01T00:27:03.745Z,0
2018-10-01T00:28:13.875Z,0
2018-10-01T00:29:24.009Z,0
2018-10-01T00:30:34.131Z,0
2018-10-01T00:31:43.996Z,0
2018-10-01T00:32:54.136Z,0
2018-10-01T00:34:04.267Z,0
2018-10-01T00:35:14.155Z,0
2018-10-01T00:36:24.529Z,0
2018-10-01T00:37:34.093Z,0
2018-10-01T00:38:44.323Z,0
2018-10-01T00:39:54.232Z,0
2018-10-01T00:41:04.426Z,0
2018-10-01T00:42:14.311Z,0
2018-10-01T00:43:24.360Z,0
2018-10-01T00:44:34.499Z,0
2018-10-01T00:45:44.129Z,0
2018-10-01T00:46:54.258Z,0
2018-10-01T00:48:04.388Z,0
2018-10-01T00:49:14.538Z,0
2018-10-01T00:50:24.796Z,0
2018-10-01T00:51:34.939Z,0
2018-10-01T00:52:45.069Z,0
2018-10-01T00:53:55.201Z,0
2018-10-01T00:55:05.349Z,0
2018-10-01T00:56:15.535Z,0
2018-10-01T00:57:25.147Z,0
2018-10-01T00:58:35.298Z,0
2018-10-01T00:59:45.429Z,0
2018-10-01T01:00:55.041Z,0
2018-10-01T01:02:05.224Z,0
2018-10-01T01:03:15.365Z,0
2018-10-01T01:04:25.507Z,0
2018-10-01T01:05:35.124Z,0
2018-10-01T01:06:44.791Z,0
2018-10-01T01:07:55.063Z,0
2018-10-01T01:09:08.234Z,0
2018-10-01T01:10:18.376Z,0
2018-10-01T01:11:28.511Z,0
2018-10-01T01:12:38.647Z,0
2018-10-01T01:13:48.837Z,0
2018-10-01T01:14:58.682Z,0
2018-10-01T01:16:09.242Z,0
2018-10-01T01:17:19.376Z,0
2018-10-01T01:18:29.511Z,0
2018-10-01T01:19:39.698Z,0
2018-10-01T01:20:49.570Z,0
2018-10-01T01:21:59.718Z,0
2018-10-01T01:23:11.041Z,0
2018-10-01T01:24:20.966Z,0
2018-10-01T01:25:31.088Z,0
2018-10-01T01:26:41.244Z,0
2018-10-01T01:27:51.112Z,0
2018-10-01T01:29:03.224Z,0
2018-10-01T01:30:13.374Z,0
2018-10-01T01:31:23.564Z,0
2018-10-01T01:32:33.700Z,0
2018-10-01T01:33:43.843Z,0
2018-10-01T01:34:53.988Z,0
2018-10-01T01:36:04.148Z,0
2018-10-01T01:37:14.034Z,0
2018-10-01T01:38:24.176Z,0
2018-10-01T01:39:34.093Z,0
2018-10-01T01:40:44.211Z,0
2018-10-01T01:41:54.339Z,0
2018-10-01T01:43:04.518Z,0
2018-10-01T01:44:14.137Z,0
2018-10-01T01:45:24.296Z,0
2018-10-01T01:46:34.173Z,0
2018-10-01T01:47:44.318Z,0
2018-10-01T01:48:54.603Z,0
2018-10-01T01:50:04.733Z,0
2018-10-01T01:51:14.083Z,0
2018-10-01T01:52:24.214Z,0
2018-10-01T01:53:34.344Z,0
2018-10-01T01:54:44.741Z,0
2018-10-01T01:55:55.099Z,0
2018-10-01T01:57:07.045Z,0
2018-10-01T01:58:17.173Z,0
2018-10-01T01:59:27.315Z,0
2018-10-01T02:00:37.189Z,0
2018-10-01T02:01:47.325Z,0
2018-10-01T02:02:57.197Z,0
2018-10-01T02:04:07.000Z,0
2018-10-01T02:05:16.872Z,0
2018-10-01T02:06:26.904Z,0
2018-10-01T02:07:37.031Z,0
2018-10-01T02:08:47.162Z,0
2018-10-01T02:09:57.043Z,0
2018-10-01T02:11:07.180Z,0
2018-10-01T02:12:17.043Z,0
2018-10-01T02:13:27.190Z,0
2018-10-01T02:14:37.036Z,0
2018-10-01T02:15:47.171Z,0
2018-10-01T02:16:57.312Z,0
2018-10-01T02:18:07.596Z,0
2018-10-01T02:19:17.744Z,0
2018-10-01T02:20:27.885Z,0
2018-10-01T02:21:37.489Z,0
2018-10-01T02:22:47.619Z,0
2018-10-01T02:23:57.563Z,0
2018-10-01T02:25:07.701Z,0
2018-10-01T02:26:17.877Z,0
2018-10-01T02:27:27.999Z,0
2018-10-01T02:28:37.885Z,0
2018-10-01T02:29:48.036Z,0
2018-10-01T02:30:58.165Z,0
2018-10-01T02:32:08.324Z,0
2018-10-01T02:33:18.513Z,0
2018-10-01T02:34:28.390Z,0
2018-10-01T02:35:38.589Z,0
2018-10-01T02:36:48.737Z,0
2018-10-01T02:37:58.870Z,0
2018-10-01T02:39:08.481Z,0
2018-10-01T02:40:18.625Z,0
2018-10-01T02:41:28.763Z,0
2018-10-01T02:42:38.892Z,0
2018-10-01T02:43:49.051Z,0
2018-10-01T02:44:59.192Z,0
2018-10-01T02:46:10.622Z,0
2018-10-01T02:47:20.504Z,0
2018-10-01T02:48:30.652Z,0
2018-10-01T02:49:40.528Z,0
2018-10-01T02:50:50.417Z,0
2018-10-01T02:52:00.560Z,0
2018-10-01T02:53:11.113Z,0
2018-10-01T02:54:21.503Z,0
2018-10-01T02:55:31.829Z,0
2018-10-01T02:56:41.995Z,0
2018-10-01T02:57:52.117Z,0
2018-10-01T02:59:02.328Z,0
2018-10-01T03:00:13.213Z,0
2018-10-01T03:01:22.843Z,0
2018-10-01T03:02:33.016Z,0
2018-10-01T03:34:16.280Z,0
2018-10-01T03:35:26.353Z,0
2018-10-01T03:36:36.654Z,0
2018-10-01T03:37:46.689Z,0
2018-10-01T03:38:56.490Z,0
2018-10-01T03:40:06.518Z,0
2018-10-01T03:41:16.653Z,0
2018-10-01T03:42:26.716Z,0
2018-10-01T03:43:36.545Z,0
2018-10-01T03:44:46.666Z,0
2018-10-01T03:45:56.564Z,0
2018-10-01T03:47:07.311Z,0
2018-10-01T03:48:17.399Z,0
2018-10-01T03:49:26.951Z,0
2018-10-01T03:50:37.017Z,0
2018-10-01T03:51:46.819Z,0
2018-10-01T03:52:56.884Z,0
2018-10-01T03:54:06.942Z,0
2018-10-01T03:55:16.755Z,0
2018-10-01T03:56:26.561Z,0
2018-10-01T03:57:36.677Z,0
2018-10-01T03:58:46.836Z,0
2018-10-01T03:59:56.923Z,0
2018-10-01T04:01:07.081Z,0
2018-10-01T04:02:16.656Z,0
2018-10-01T04:03:26.590Z,0
2018-10-01T04:04:36.739Z,0
2018-10-01T04:05:46.807Z,0
2018-10-01T04:06:56.889Z,0
2018-10-01T04:08:07.911Z,0
2018-10-01T04:09:18.102Z,0
2018-10-01T04:10:28.181Z,0
2018-10-01T04:11:37.727Z,0
2018-10-01T04:12:47.555Z,0
2018-10-01T04:13:57.635Z,0
2018-10-01T04:15:07.603Z,0
2018-10-01T04:16:18.025Z,0
2018-10-01T04:17:28.109Z,0
2018-10-01T04:18:37.919Z,0
2018-10-01T04:19:48.003Z,0
2018-10-01T04:20:58.135Z,0
2018-10-01T04:22:08.230Z,0
2018-10-01T04:23:18.359Z,0
2018-10-01T04:24:28.174Z,0
2018-10-01T04:25:37.984Z,0
2018-10-01T04:26:48.315Z,0
2018-10-01T04:27:58.379Z,0
2018-10-01T04:29:08.459Z,0
2018-10-01T04:30:18.578Z,0
2018-10-01T04:31:28.639Z,0
2018-10-01T04:32:38.762Z,0
2018-10-01T04:33:48.588Z,0
2018-10-01T04:34:58.675Z,0
2018-10-01T04:36:10.489Z,0
2018-10-01T04:37:20.599Z,0
2018-10-01T04:38:30.736Z,0
2018-10-01T04:39:40.802Z,0
2018-10-01T04:40:50.958Z,0
2018-10-01T04:42:01.072Z,0
2018-10-01T04:43:11.139Z,0
2018-10-01T04:44:21.257Z,0
2018-10-01T04:45:31.177Z,0
2018-10-01T04:46:41.432Z,0
2018-10-01T04:47:51.526Z,0
2018-10-01T04:49:01.336Z,0
2018-10-01T04:50:11.160Z,0
2018-10-01T04:51:21.236Z,0
2018-10-01T04:52:31.316Z,5
2018-10-01T04:53:41.141Z,5
2018-10-01T04:54:50.699Z,5
2018-10-01T04:56:00.758Z,5
2018-10-01T04:57:10.885Z,5
2018-10-01T04:58:21.391Z,5
2018-10-01T04:59:31.521Z,5
2018-10-01T05:00:41.614Z,10
2018-10-01T05:01:51.462Z,10
2018-10-01T05:03:01.274Z,10
2018-10-01T05:04:11.341Z,10
2018-10-01T05:05:21.412Z,10
2018-10-01T05:06:31.476Z,15
2018-10-01T05:07:41.561Z,15
2018-10-01T05:08:51.357Z,15
2018-10-01T05:10:03.440Z,15
2018-10-01T05:11:13.513Z,20
2018-10-01T05:12:23.586Z,20
2018-10-01T05:13:33.705Z,20
2018-10-01T05:14:43.895Z,20
2018-10-01T05:15:54.079Z,25
2018-10-01T05:17:04.165Z,25
2018-10-01T05:18:14.026Z,25
2018-10-01T05:19:23.835Z,25
2018-10-01T05:20:33.657Z,30
2018-10-01T05:21:43.828Z,30
2018-10-01T05:22:53.909Z,30
2018-10-01T05:24:04.207Z,35
2018-10-01T05:25:14.300Z,35
2018-10-01T05:26:24.141Z,35
2018-10-01T05:27:34.247Z,40
2018-10-01T05:28:44.307Z,40
2018-10-01T05:29:53.854Z,40
2018-10-01T05:31:04.167Z,40
2018-10-01T05:32:14.232Z,45
2018-10-01T05:33:24.325Z,40
2018-10-01T05:34:34.132Z,40
2018-10-01T05:35:44.206Z,45
2018-10-01T05:36:54.279Z,45
2018-10-01T05:38:05.362Z,50
2018-10-01T05:39:15.475Z,50
2018-10-01T05:40:25.516Z,50
2018-10-01T05:41:35.320Z,55
2018-10-01T05:42:45.393Z,55
2018-10-01T05:43:55.480Z,55
2018-10-01T05:45:06.127Z,60
2018-10-01T05:46:15.934Z,60
2018-10-01T05:47:26.019Z,60
2018-10-01T05:48:36.103Z,65
2018-10-01T05:49:46.217Z,65
2018-10-01T05:50:56.276Z,65
2018-10-01T05:52:06.361Z,65
2018-10-01T05:53:16.448Z,70
2018-10-01T05:54:26.524Z,70
2018-10-01T05:55:36.606Z,70
2018-10-01T05:56:46.728Z,70
2018-10-01T05:57:57.176Z,70
2018-10-01T05:59:07.310Z,75
2018-10-01T06:00:17.497Z,75
2018-10-01T06:01:27.561Z,75
2018-10-01T06:02:37.373Z,75
2018-10-01T06:03:47.448Z,75
2018-10-01T06:04:58.117Z,75
2018-10-01T06:06:07.923Z,75
2018-10-01T06:07:17.745Z,75
2018-10-01T06:08:27.430Z,75
2018-10-01T06:09:37.529Z,80
2018-10-01T06:10:47.631Z,80
2018-10-01T06:11:58.147Z,85
2018-10-01T06:13:08.294Z,85
2018-10-01T06:14:18.164Z,85
2018-10-01T06:15:28.245Z,85
2018-10-01T06:16:38.055Z,80
2018-10-01T06:17:48.149Z,85
2018-10-01T06:18:57.943Z,80
2018-10-01T06:20:08.005Z,80
2018-10-01T06:21:18.122Z,85
2018-10-01T06:22:28.188Z,85
2018-10-01T06:23:37.745Z,85
2018-10-01T06:24:47.569Z,85
2018-10-01T06:25:57.632Z,85
2018-10-01T06:27:08.398Z,80
2018-10-01T06:28:18.475Z,85
2018-10-01T06:29:28.295Z,80
2018-10-01T06:30:38.442Z,85
2018-10-01T06:31:48.632Z,80
2018-10-01T06:32:58.705Z,80
2018-10-01T06:34:09.456Z,85
2018-10-01T06:35:19.271Z,85
2018-10-01T06:36:29.227Z,85
2018-10-01T06:37:38.549Z,85
2018-10-01T06:38:48.109Z,85
2018-10-01T06:39:57.662Z,90
2018-10-01T06:41:08.323Z,90
2018-10-01T06:42:18.602Z,90
2018-10-01T06:43:28.460Z,95
2018-10-01T06:44:38.283Z,100
2018-10-01T06:45:48.380Z,100
2018-10-01T06:46:57.998Z,100
2018-10-01T06:48:08.206Z,100
2018-10-01T06:49:18.269Z,95
2018-10-01T06:50:28.061Z,95
2018-10-01T06:51:37.912Z,100
2018-10-01T06:52:47.976Z,105
2018-10-01T06:53:57.303Z,105
2018-10-01T06:55:06.869Z,105
2018-10-01T06:56:16.961Z,105
2018-10-01T06:57:26.781Z,105
2018-10-01T06:58:36.584Z,110
2018-10-01T06:59:46.835Z,120
2018-10-01T07:00:56.891Z,120
2018-10-01T07:02:06.991Z,120
2018-10-01T07:03:17.067Z,120
2018-10-01T07:04:27.148Z,120
2018-10-01T07:05:37.396Z,125
2018-10-01T07:06:47.616Z,125
2018-10-01T07:07:57.961Z,125
2018-10-01T07:09:11.849Z,125
2018-10-01T07:10:22.150Z,120
2018-10-01T07:11:32.170Z,120
2018-10-01T07:12:42.320Z,120
2018-10-01T07:13:52.141Z,120
2018-10-01T07:15:02.217Z,130
2018-10-01T07:16:12.059Z,140
2018-10-01T07:17:23.274Z,140
2018-10-01T07:18:33.654Z,140
2018-10-01T07:19:43.753Z,140
2018-10-01T07:20:53.854Z,135
2018-10-01T07:22:04.028Z,130
2018-10-01T07:23:14.922Z,135
2018-10-01T07:24:25.226Z,135
2018-10-01T07:25:35.349Z,135
2018-10-01T07:26:45.202Z,140
2018-10-01T07:27:55.278Z,140
2018-10-01T07:29:05.356Z,140
2018-10-01T07:30:15.434Z,135
2018-10-01T07:31:25.511Z,135
2018-10-01T07:32:35.598Z,135
2018-10-01T07:33:45.735Z,130
2018-10-01T07:34:55.818Z,130
2018-10-01T07:36:05.944Z,130
2018-10-01T07:37:15.767Z,130
2018-10-01T07:38:25.878Z,130
2018-10-01T07:39:35.671Z,135
2018-10-01T07:40:45.761Z,135
2018-10-01T07:41:55.892Z,140
2018-10-01T07:43:05.983Z,140
2018-10-01T07:44:15.798Z,140
2018-10-01T07:45:26.996Z,135
2018-10-01T07:46:36.823Z,130
2018-10-01T07:47:46.912Z,130
2018-10-01T07:48:56.819Z,130
2018-10-01T07:50:06.926Z,130
2018-10-01T07:51:17.816Z,130
2018-10-01T07:52:28.048Z,130
2018-10-01T07:53:38.670Z,130
2018-10-01T07:54:48.802Z,130
2018-10-01T07:55:58.949Z,135
2018-10-01T07:57:09.329Z,135
2018-10-01T07:58:19.537Z,135
2018-10-01T07:59:29.827Z,140
2018-10-01T08:00:40.118Z,135
2018-10-01T08:01:49.943Z,130
2018-10-01T08:03:00.021Z,125
2018-10-01T08:04:09.842Z,125
2018-10-01T08:05:20.020Z,125
2018-10-01T08:06:30.217Z,125
2018-10-01T08:07:40.320Z,125
2018-10-01T08:08:50.800Z,125
2018-10-01T08:10:00.637Z,130
2018-10-01T08:11:10.790Z,130
2018-10-01T08:12:20.849Z,130
2018-10-01T08:13:30.676Z,125
2018-10-01T08:14:41.340Z,125
2018-10-01T08:15:51.718Z,120
2018-10-01T08:17:01.858Z,120
2018-10-01T08:18:11.695Z,120
2018-10-01T08:19:21.522Z,120
2018-10-01T08:20:31.786Z,120
2018-10-01T08:21:41.924Z,120
2018-10-01T08:22:52.052Z,120
2018-10-01T08:24:02.130Z,120
2018-10-01T08:25:12.261Z,120
2018-10-01T08:26:22.752Z,125
2018-10-01T08:27:32.549Z,125
2018-10-01T08:28:42.139Z,125
2018-10-01T08:29:53.595Z,125
2018-10-01T08:31:04.745Z,130
2018-10-01T08:32:15.287Z,135
2018-10-01T08:33:25.409Z,130
2018-10-01T08:34:35.576Z,140
2018-10-01T08:35:45.835Z,140
2018-10-01T08:36:55.657Z,135
2018-10-01T08:38:08.840Z,135
2018-10-01T08:39:18.996Z,125
2018-10-01T08:40:29.111Z,125
2018-10-01T08:41:39.497Z,120
2018-10-01T08:42:49.635Z,125
2018-10-01T08:43:59.567Z,130
2018-10-01T08:45:09.682Z,150
2018-10-01T08:46:19.783Z,175
2018-10-01T08:47:30.588Z,175
2018-10-01T08:48:40.428Z,175
2018-10-01T08:49:50.254Z,175
2018-10-01T08:51:00.423Z,170
2018-10-01T08:52:10.870Z,170
2018-10-01T08:53:21.983Z,170
2018-10-01T08:54:31.777Z,165
2018-10-01T08:55:42.099Z,160
2018-10-01T08:56:51.443Z,160
2018-10-01T08:58:01.260Z,165
2018-10-01T08:59:13.543Z,165
2018-10-01T09:00:23.749Z,160
2018-10-01T09:01:33.837Z,160
2018-10-01T09:02:43.605Z,165
2018-10-01T09:03:53.678Z,165
2018-10-01T09:05:03.623Z,165
2018-10-01T09:06:13.740Z,165
2018-10-01T09:07:23.590Z,170
2018-10-01T09:08:34.157Z,175
2018-10-01T09:09:44.308Z,185
2018-10-01T09:10:54.397Z,185
2018-10-01T09:12:04.521Z,195
2018-10-01T09:13:14.612Z,200
2018-10-01T09:14:25.154Z,200
2018-10-01T09:15:34.726Z,210
2018-10-01T09:16:44.549Z,195
2018-10-01T09:17:54.365Z,195
2018-10-01T09:19:04.182Z,195
2018-10-01T09:20:14.851Z,205
2018-10-01T09:21:24.931Z,205
2018-10-01T09:22:34.857Z,210
2018-10-01T09:23:45.171Z,200
2018-10-01T09:24:54.994Z,190
2018-10-01T09:26:05.012Z,205
2018-10-01T09:27:15.140Z,195
2018-10-01T09:28:24.974Z,190
2018-10-01T09:29:35.615Z,190
2018-10-01T09:30:45.769Z,195
2018-10-01T09:31:55.900Z,175
2018-10-01T09:33:06.031Z,175
2018-10-01T09:34:16.159Z,180
2018-10-01T09:35:26.570Z,175
2018-10-01T09:36:36.755Z,175
2018-10-01T09:37:46.829Z,170
2018-10-01T09:38:56.662Z,165
2018-10-01T09:40:07.063Z,165
2018-10-01T09:41:17.222Z,165
2018-10-01T09:42:27.305Z,170
2018-10-01T09:43:37.477Z,170
2018-10-01T09:44:47.752Z,165
2018-10-01T09:45:57.897Z,165
2018-10-01T09:47:07.998Z,170
2018-10-01T09:48:17.985Z,170
2018-10-01T09:49:27.843Z,170
2018-10-01T09:50:38.306Z,170
2018-10-01T09:51:48.452Z,170
2018-10-01T09:52:58.551Z,170
2018-10-01T09:54:08.664Z,165
2018-10-01T09:55:18.806Z,170
2018-10-01T09:56:29.123Z,170
2018-10-01T09:57:38.961Z,170
2018-10-01T09:58:48.965Z,180
2018-10-01T09:59:59.045Z,180
2018-10-01T10:01:08.857Z,165
2018-10-01T10:02:19.215Z,165
2018-10-01T10:03:29.346Z,180
2018-10-01T10:04:40.276Z,210
2018-10-01T10:05:50.211Z,210
2018-10-01T10:07:00.940Z,210
2018-10-01T10:08:13.403Z,210
2018-10-01T10:09:23.272Z,205
2018-10-01T10:10:33.663Z,205
2018-10-01T10:11:43.104Z,205
2018-10-01T10:12:53.242Z,210
2018-10-01T10:14:03.262Z,215
2018-10-01T10:15:13.381Z,220
2018-10-01T10:16:24.339Z,220
2018-10-01T10:17:34.750Z,225
2018-10-01T10:18:44.375Z,225
2018-10-01T10:19:54.514Z,230
2018-10-01T10:21:04.072Z,230
2018-10-01T10:22:14.965Z,230
2018-10-01T10:23:25.123Z,215
2018-10-01T10:24:35.224Z,170
2018-10-01T10:25:45.046Z,175
2018-10-01T10:26:54.860Z,155
2018-10-01T10:28:04.554Z,175
2018-10-01T10:29:14.404Z,175
2018-10-01T10:30:24.484Z,185
2018-10-01T10:31:34.563Z,180
2018-10-01T10:32:44.735Z,220
2018-10-01T10:33:54.576Z,220
2018-10-01T10:35:04.661Z,220
2018-10-01T10:36:14.743Z,215
2018-10-01T10:37:24.827Z,155
2018-10-01T10:38:35.367Z,185
2018-10-01T10:39:45.661Z,185
2018-10-01T10:40:55.773Z,135
2018-10-01T10:42:05.494Z,135
2018-10-01T10:43:15.573Z,195
2018-10-01T10:44:26.267Z,190
2018-10-01T10:45:36.563Z,205
2018-10-01T10:46:46.658Z,205
2018-10-01T10:47:56.771Z,200
2018-10-01T10:49:06.861Z,200
2018-10-01T10:50:17.465Z,200
2018-10-01T10:51:27.435Z,200
2018-10-01T10:52:37.521Z,200
2018-10-01T10:53:47.712Z,200
2018-10-01T10:54:57.814Z,200
2018-10-01T10:56:07.819Z,200
2018-10-01T10:57:17.445Z,200
2018-10-01T10:58:27.523Z,165
2018-10-01T10:59:37.621Z,180
2018-10-01T11:00:47.432Z,175
2018-10-01T11:01:57.560Z,150
2018-10-01T11:03:07.706Z,195
2018-10-01T11:04:17.581Z,195
2018-10-01T11:05:27.640Z,195
2018-10-01T11:06:37.727Z,195
2018-10-01T11:07:47.580Z,190
2018-10-01T11:08:57.658Z,190
2018-10-01T11:10:07.751Z,190
2018-10-01T11:11:17.677Z,190
2018-10-01T11:12:27.491Z,190
2018-10-01T11:13:37.584Z,190
2018-10-01T11:14:48.771Z,195
2018-10-01T11:15:59.069Z,195
2018-10-01T11:17:09.349Z,195
2018-10-01T11:18:19.628Z,195
2018-10-01T11:19:30.395Z,195
2018-10-01T11:20:40.542Z,195
2018-10-01T11:21:51.624Z,195
2018-10-01T11:23:01.851Z,195
2018-10-01T11:24:11.424Z,190
2018-10-01T11:25:21.715Z,190
2018-10-01T11:26:31.733Z,190
2018-10-01T11:27:42.036Z,190
2018-10-01T11:28:51.723Z,190
2018-10-01T11:30:03.317Z,190
2018-10-01T11:31:13.399Z,195
2018-10-01T11:32:23.732Z,195
2018-10-01T11:33:34.045Z,195
2018-10-01T11:34:44.482Z,190
2018-10-01T11:35:54.563Z,190
2018-10-01T11:37:04.640Z,195
2018-10-01T11:38:14.798Z,195
2018-10-01T11:39:25.504Z,195
2018-10-01T11:40:35.320Z,195
2018-10-01T11:41:45.145Z,195
2018-10-01T11:42:55.218Z,195
2018-10-01T11:44:06.170Z,195
2018-10-01T11:45:16.855Z,195
2018-10-01T11:46:26.803Z,195
2018-10-01T11:47:36.641Z,195
2018-10-01T11:48:46.725Z,195
2018-10-01T11:49:56.862Z,195
2018-10-01T11:51:07.291Z,195
2018-10-01T11:52:17.385Z,195
2018-10-01T11:53:27.194Z,195
2018-10-01T11:54:37.222Z,195
2018-10-01T11:55:46.929Z,195
2018-10-01T11:56:57.084Z,195
2018-10-01T11:58:07.180Z,200
2018-10-01T11:59:17.273Z,195
2018-10-01T12:00:27.361Z,195
2018-10-01T12:01:37.199Z,195
2018-10-01T12:02:47.273Z,195
2018-10-01T12:03:57.987Z,195
2018-10-01T12:05:08.778Z,200
2018-10-01T12:06:18.844Z,200
2018-10-01T12:07:28.928Z,200
2018-10-01T12:08:39.013Z,200
2018-10-01T12:09:50.243Z,200
2018-10-01T12:11:01.112Z,200
2018-10-01T12:12:10.656Z,195
2018-10-01T12:13:20.498Z,195
2018-10-01T12:14:30.570Z,195
2018-10-01T12:15:41.366Z,195
2018-10-01T12:16:51.471Z,195
2018-10-01T12:18:01.302Z,195
2018-10-01T12:19:11.422Z,195
2018-10-01T12:20:21.355Z,200
2018-10-01T12:21:31.074Z,200
2018-10-01T12:22:40.913Z,195
2018-10-01T12:23:50.992Z,200
2018-10-01T12:25:00.819Z,195
2018-10-01T12:26:10.634Z,195
2018-10-01T12:27:21.354Z,195
2018-10-01T12:28:31.445Z,195
2018-10-01T12:29:41.542Z,190
2018-10-01T12:30:51.412Z,200
2018-10-01T12:32:02.087Z,190
2018-10-01T12:33:12.489Z,200
2018-10-01T12:34:22.520Z,180
2018-10-01T12:35:32.653Z,155
2018-10-01T12:36:42.731Z,140
2018-10-01T12:37:52.927Z,120
2018-10-01T12:39:05.573Z,115
2018-10-01T12:40:15.655Z,120
2018-10-01T12:41:25.456Z,120
2018-10-01T12:42:35.566Z,120
2018-10-01T12:43:45.672Z,145
2018-10-01T12:44:55.501Z,200
2018-10-01T12:46:08.363Z,130
2018-10-01T12:47:18.438Z,135
2018-10-01T12:48:28.248Z,130
2018-10-01T12:49:38.368Z,130
2018-10-01T12:50:48.604Z,155
2018-10-01T12:51:58.846Z,135
2018-10-01T12:53:09.627Z,140
2018-10-01T12:54:19.719Z,140
2018-10-01T12:55:29.523Z,135
2018-10-01T12:56:39.395Z,135
2018-10-01T12:57:49.679Z,135
2018-10-01T12:58:59.797Z,130
2018-10-01T13:00:13.074Z,130
2018-10-01T13:01:23.422Z,130
2018-10-01T13:02:33.524Z,135
2018-10-01T13:03:43.633Z,135
2018-10-01T13:04:53.810Z,135
2018-10-01T13:06:04.021Z,135
2018-10-01T13:07:14.114Z,135
2018-10-01T13:08:24.227Z,135
2018-10-01T13:09:34.355Z,135
2018-10-01T13:10:44.449Z,135
2018-10-01T13:11:54.616Z,135
2018-10-01T13:13:04.462Z,140
2018-10-01T13:14:14.032Z,160
2018-10-01T13:15:24.158Z,155
2018-10-01T13:16:34.276Z,165
2018-10-01T13:17:44.986Z,180
2018-10-01T13:18:55.725Z,180
2018-10-01T13:20:05.834Z,180
2018-10-01T13:21:15.940Z,180
2018-10-01T13:22:26.048Z,190
2018-10-01T13:23:35.655Z,165
2018-10-01T13:24:46.276Z,160
2018-10-01T13:25:56.199Z,155
2018-10-01T13:27:07.500Z,155
2018-10-01T13:28:17.615Z,150
2018-10-01T13:29:27.867Z,145
2018-10-01T13:30:38.348Z,140
2018-10-01T13:31:48.719Z,140
2018-10-01T13:32:58.837Z,135
2018-10-01T13:34:09.644Z,130
2018-10-01T13:35:20.455Z,130
2018-10-01T13:36:31.039Z,125
2018-10-01T13:37:41.010Z,125
2018-10-01T13:38:50.847Z,125
2018-10-01T13:40:02.364Z,125
2018-10-01T13:41:12.506Z,115
2018-10-01T13:42:22.913Z,110
2018-10-01T13:43:33.097Z,105
2018-10-01T13:44:43.832Z,105
2018-10-01T13:45:53.978Z,100
2018-10-01T13:47:04.102Z,90
2018-10-01T13:48:14.692Z,85
2018-10-01T13:49:24.910Z,80
2018-10-01T13:50:35.166Z,80
2018-10-01T13:51:45.609Z,75
2018-10-01T13:52:56.270Z,70
2018-10-01T13:54:06.561Z,70
2018-10-01T13:55:16.544Z,70
2018-10-01T13:56:26.634Z,70
2018-10-01T13:57:36.739Z,65
2018-10-01T13:58:46.971Z,60
2018-10-01T13:59:57.101Z,60
2018-10-01T14:01:06.985Z,55
2018-10-01T14:02:17.182Z,55
2018-10-01T14:03:27.534Z,50
2018-10-01T14:04:37.626Z,45
2018-10-01T14:05:48.068Z,45
2018-10-01T14:06:57.770Z,40
2018-10-01T14:08:07.876Z,40
2018-10-01T14:09:18.476Z,40
2018-10-01T14:10:28.612Z,40
2018-10-01T14:11:38.703Z,35
2018-10-01T14:12:48.600Z,35
2018-10-01T14:13:59.699Z,30
2018-10-01T14:15:10.003Z,30
2018-10-01T14:16:20.132Z,30
2018-10-01T14:17:30.226Z,30
2018-10-01T14:18:40.356Z,30
2018-10-01T14:19:51.114Z,30
2018-10-01T14:21:01.234Z,30
2018-10-01T14:22:11.090Z,30
2018-10-01T14:23:21.211Z,30
2018-10-01T14:24:31.317Z,30
2018-10-01T14:25:42.696Z,30
2018-10-01T14:26:53.095Z,30
2018-10-01T14:28:02.969Z,30
2018-10-01T14:29:13.300Z,25
2018-10-01T14:30:23.685Z,25
2018-10-01T14:31:33.851Z,25
2018-10-01T14:32:44.042Z,25
2018-10-01T14:33:54.162Z,25
2018-10-01T14:35:04.005Z,20
2018-10-01T14:36:14.303Z,20
2018-10-01T14:37:24.434Z,20
2018-10-01T14:38:34.280Z,25
2018-10-01T14:39:44.428Z,25
2018-10-01T14:40:54.502Z,25
2018-10-01T14:42:04.805Z,25
2018-10-01T14:43:15.299Z,25
2018-10-01T14:44:25.104Z,25
2018-10-01T14:45:35.235Z,30
2018-10-01T14:46:45.358Z,30
2018-10-01T14:47:55.476Z,30
2018-10-01T14:49:08.242Z,30
2018-10-01T14:50:18.417Z,30
2018-10-01T14:51:28.812Z,30
2018-10-01T14:52:38.901Z,25
2018-10-01T14:53:49.022Z,25
2018-10-01T14:54:58.866Z,25
2018-10-01T14:56:08.996Z,25
2018-10-01T14:57:19.132Z,25
2018-10-01T14:58:29.230Z,20
2018-10-01T14:59:38.856Z,20
2018-10-01T15:00:49.337Z,20
2018-10-01T15:01:59.469Z,20
2018-10-01T15:03:09.292Z,20
2018-10-01T15:04:19.102Z,20
2018-10-01T15:05:29.478Z,20
2018-10-01T15:06:39.701Z,20
2018-10-01T15:07:49.869Z,20
2018-10-01T15:08:59.978Z,20
2018-10-01T15:10:13.048Z,20
2018-10-01T15:11:23.185Z,20
2018-10-01T15:12:33.203Z,20
2018-10-01T15:13:43.074Z,20
2018-10-01T15:14:52.919Z,20
2018-10-01T15:16:03.052Z,15
2018-10-01T15:17:13.394Z,15
2018-10-01T15:18:23.931Z,15
2018-10-01T15:19:34.126Z,15
2018-10-01T15:20:43.977Z,10
2018-10-01T15:21:53.873Z,10
2018-10-01T15:23:03.800Z,10
2018-10-01T15:24:14.342Z,10
2018-10-01T15:25:24.517Z,10
2018-10-01T15:26:34.615Z,10
2018-10-01T15:27:44.430Z,10
2018-10-01T15:28:54.591Z,10
2018-10-01T15:30:04.933Z,10
2018-10-01T15:31:15.035Z,10
2018-10-01T15:32:25.213Z,10
2018-10-01T15:33:35.314Z,10
2018-10-01T15:34:44.663Z,10
2018-10-01T15:35:54.824Z,5
2018-10-01T15:37:04.921Z,5
2018-10-01T15:38:15.083Z,5
2018-10-01T15:39:25.161Z,5
2018-10-01T15:40:35.385Z,5
2018-10-01T15:41:45.232Z,5
2018-10-01T15:42:55.343Z,5
2018-10-01T15:44:06.235Z,5
2018-10-01T15:45:16.337Z,5
2018-10-01T15:46:26.236Z,5
2018-10-01T15:47:36.393Z,5
2018-10-01T15:48:46.539Z,5
2018-10-01T15:49:56.906Z,5
2018-10-01T15:51:07.092Z,5
2018-10-01T15:52:17.297Z,5
2018-10-01T15:53:27.421Z,0
2018-10-01T15:54:37.547Z,0
2018-10-01T15:55:47.853Z,0
2018-10-01T15:56:58.060Z,0
2018-10-01T15:58:07.935Z,0
2018-10-01T15:59:17.753Z,0
2018-10-01T16:00:27.855Z,0
2018-10-01T16:01:37.943Z,0
2018-10-01T16:02:48.016Z,0
2018-10-01T16:03:58.176Z,0
2018-10-01T16:05:08.581Z,0
2018-10-01T16:06:18.755Z,0
2018-10-01T16:07:28.834Z,0
2018-10-01T16:08:38.652Z,0
2018-10-01T16:09:48.790Z,0
2018-10-01T16:10:58.938Z,0
2018-10-01T16:12:09.036Z,0
2018-10-01T16:13:18.873Z,0
2018-10-01T16:14:28.963Z,0
2018-10-01T16:15:38.792Z,0
2018-10-01T16:16:49.157Z,0
2018-10-01T16:17:59.333Z,0
2018-10-01T16:19:09.451Z,0
2018-10-01T16:20:19.525Z,0
2018-10-01T16:21:29.619Z,0
2018-10-01T16:22:39.712Z,0
2018-10-01T16:23:49.804Z,0
2018-10-01T16:24:59.661Z,0
2018-10-01T16:26:09.510Z,0
2018-10-01T16:27:19.145Z,0
2018-10-01T16:28:29.230Z,0
2018-10-01T16:29:39.369Z,0
2018-10-01T16:30:49.529Z,0
2018-10-01T16:31:59.688Z,0
2018-10-01T16:33:11.029Z,0
2018-10-01T16:34:20.856Z,0
2018-10-01T16:35:31.004Z,0
2018-10-01T16:36:41.176Z,0
2018-10-01T16:37:51.272Z,0
2018-10-01T16:39:01.102Z,0
2018-10-01T16:40:11.243Z,0
2018-10-01T16:41:21.324Z,0
2018-10-01T16:42:31.766Z,0
2018-10-01T16:43:41.875Z,0
2018-10-01T16:44:52.111Z,0
2018-10-01T16:46:02.235Z,0
2018-10-01T16:47:12.330Z,0
2018-10-01T16:48:22.439Z,0
2018-10-01T16:49:32.738Z,0
2018-10-01T16:50:42.954Z,0
2018-10-01T16:51:53.128Z,0
2018-10-01T16:53:03.243Z,0
2018-10-01T16:54:13.400Z,0
2018-10-01T16:55:23.270Z,0
2018-10-01T16:56:33.454Z,0
2018-10-01T16:57:43.644Z,0
2018-10-01T16:58:53.824Z,0
2018-10-01T17:00:03.938Z,0
2018-10-01T17:01:14.057Z,0
2018-10-01T17:02:24.258Z,0
2018-10-01T17:03:34.438Z,0
2018-10-01T17:04:44.548Z,0
2018-10-01T17:05:54.753Z,0
2018-10-01T17:07:05.961Z,0
2018-10-01T17:08:16.150Z,0